aviador You're here:

PAZK Decoded Metar

EUREKA in AK, USA
Report Time2017-12-16 02:56:00
UTC Time2017-12-16 03:41:00
Flight Rules vfr VFR
Wind030° at 07 kt
W.Rank030° ranks 5
Current wind is above 030° avg. (5.5)
Visibility9999 m
Phenomena:N/A
Clouds:N/A
Expected CloudBase > 800 ft AGL from Temp-Dew spread
CeilingNone
Temp-7°C (ISA -15)
Dew Point-9°C (86% RH)
AAT-12.5°C
QNH991 hPa
Density Alt2,201 ft
Elevation3,291 ft
Report Wrong Elevation
Raw Report
PAZK 160256Z AUTO 03007KT 10SM CLR M07/M09 A2927 RMK AO2 SLP975
T10671089 56029 FZRANO=

Extra information for PAZK:More info

Metar Taf Metar & Taf Last 4 Metars F.Rules Stats Wind Profile Meteogram Temp Stats Airport Information Weather charts Add Link Nearby VenuesMetar ALERT Operation Metar Decoded Social comments

AIRNAV info for PAZK